Time;durP1;ratioP1;P1;durP2;ratioP2;P2;SDS_P1;SDS_P2;PMS_P1;PMS_P2;Temp;Humidity;BMP_temperature;BMP_pressure;BME280_temperature;BME280_humidity;BME280_pressure;Samples;Min_cycle;Max_cycle;Signal;HPM_P1;HPM_P2
2024/01/15 00:01:30;;;;;;;10.45;1.95;;;;;;;;;;5046993;27;100176;-75
2024/01/15 00:03:56;;;;;;;5.53;1.85;;;;;;;;;;5047400;27;100211;-75
2024/01/15 00:06:23;;;;;;;14.73;2.30;;;;;;;;;;5060410;27;98783;-76
2024/01/15 00:08:49;;;;;;;8.23;2.10;;;;;;;;;;5070485;27;100189;-76
2024/01/15 00:11:16;;;;;;;10.05;1.60;;;;;;;;;;5067789;27;100096;-76
2024/01/15 00:13:42;;;;;;;11.05;2.20;;;;;;;;;;5066669;27;100381;-76
2024/01/15 00:16:10;;;;;;;2.25;1.00;;;;;;;;;;5063714;27;99521;-75
2024/01/15 00:18:36;;;;;;;4.10;1.70;;;;;;;;;;5067746;27;100054;-76
2024/01/15 00:21:03;;;;;;;5.28;1.77;;;;;;;;;;5064829;27;99841;-76
2024/01/15 00:23:30;;;;;;;9.48;2.03;;;;;;;;;;5048354;27;100281;-76
2024/01/15 00:25:56;;;;;;;4.88;1.85;;;;;;;;;;5047018;27;99193;-76
2024/01/15 00:28:23;;;;;;;8.00;2.50;;;;;;;;;;5050637;27;99080;-76
2024/01/15 00:30:49;;;;;;;10.63;2.05;;;;;;;;;;5045095;27;99489;-76
2024/01/15 00:33:15;;;;;;;8.02;1.63;;;;;;;;;;5046538;27;100159;-76
2024/01/15 00:35:42;;;;;;;8.75;1.40;;;;;;;;;;5045847;27;100431;-76
2024/01/15 00:38:09;;;;;;;16.88;2.08;;;;;;;;;;5054704;27;100056;-75
2024/01/15 00:40:35;;;;;;;5.75;1.20;;;;;;;;;;5046809;27;99241;-76
2024/01/15 00:43:02;;;;;;;8.55;1.85;;;;;;;;;;5045896;27;100266;-76
2024/01/15 00:45:29;;;;;;;4.93;2.03;;;;;;;;;;5046182;27;100164;-75
2024/01/15 00:47:56;;;;;;;10.52;1.88;;;;;;;;;;5046215;27;100685;-76
2024/01/15 00:50:23;;;;;;;16.30;2.30;;;;;;;;;;5049253;27;100475;-76
2024/01/15 00:52:49;;;;;;;8.00;1.90;;;;;;;;;;5047715;27;100100;-76
2024/01/15 00:55:16;;;;;;;10.68;2.95;;;;;;;;;;5046011;27;99595;-76
2024/01/15 00:57:42;;;;;;;11.38;1.80;;;;;;;;;;5046114;27;99150;-76
2024/01/15 01:00:11;;;;;;;2.88;1.60;;;;;;;;;;5047399;27;99016;-75
2024/01/15 01:02:38;;;;;;;7.32;2.08;;;;;;;;;;5030175;27;100589;-77
2024/01/15 01:05:04;;;;;;;5.97;1.45;;;;;;;;;;5046337;27;99645;-76
2024/01/15 01:07:31;;;;;;;3.40;1.73;;;;;;;;;;5051428;27;99114;-75
2024/01/15 01:09:57;;;;;;;18.50;1.70;;;;;;;;;;5058172;27;100793;-75
2024/01/15 01:12:24;;;;;;;4.63;1.75;;;;;;;;;;5053264;27;98524;-75
2024/01/15 01:14:50;;;;;;;10.60;1.90;;;;;;;;;;5048488;27;99314;-76
2024/01/15 01:17:16;;;;;;;7.38;1.98;;;;;;;;;;5046311;27;100107;-76
2024/01/15 01:19:43;;;;;;;5.75;1.58;;;;;;;;;;5047921;27;99186;-76
2024/01/15 01:22:10;;;;;;;3.45;1.90;;;;;;;;;;5046905;27;100290;-75
2024/01/15 01:24:36;;;;;;;11.52;2.15;;;;;;;;;;5050732;27;99219;-76
2024/01/15 01:27:02;;;;;;;5.93;2.40;;;;;;;;;;5059506;27;99768;-76
2024/01/15 01:29:29;;;;;;;11.57;1.80;;;;;;;;;;5055334;27;100514;-76
2024/01/15 01:31:56;;;;;;;12.20;1.88;;;;;;;;;;5065857;27;99953;-76
2024/01/15 01:34:23;;;;;;;10.90;1.60;;;;;;;;;;5069358;27;99954;-76
2024/01/15 01:36:49;;;;;;;10.30;1.70;;;;;;;;;;5066513;27;100323;-76
2024/01/15 01:39:16;;;;;;;9.88;2.45;;;;;;;;;;5046758;27;100176;-76
2024/01/15 01:41:42;;;;;;;7.78;2.00;;;;;;;;;;5053718;27;101007;-76
2024/01/15 01:44:09;;;;;;;9.73;1.73;;;;;;;;;;5045666;27;98933;-75
2024/01/15 01:46:39;;;;;;;7.03;1.60;;;;;;;;;;5043966;27;99843;-75
2024/01/15 01:49:06;;;;;;;9.60;1.38;;;;;;;;;;5045655;27;100164;-76
2024/01/15 01:51:34;;;;;;;3.80;1.23;;;;;;;;;;5046191;27;100208;-76
2024/01/15 01:54:00;;;;;;;2.85;1.70;;;;;;;;;;5044817;27;99211;-75
2024/01/15 01:56:27;;;;;;;8.18;2.38;;;;;;;;;;5053120;27;100299;-75
2024/01/15 01:58:53;;;;;;;11.02;2.30;;;;;;;;;;5049709;27;100036;-76
2024/01/15 02:01:20;;;;;;;4.38;2.13;;;;;;;;;;5046331;27;100705;-76
2024/01/15 02:03:46;;;;;;;9.38;1.42;;;;;;;;;;5049372;27;99713;-76
2024/01/15 02:06:13;;;;;;;12.48;2.13;;;;;;;;;;5048359;27;99825;-76
2024/01/15 02:08:43;;;;;;;5.68;1.25;;;;;;;;;;5048088;27;100108;-76
2024/01/15 02:11:09;;;;;;;4.47;1.25;;;;;;;;;;5048656;27;99612;-77
2024/01/15 02:13:36;;;;;;;9.10;2.05;;;;;;;;;;5049569;27;99468;-77
2024/01/15 02:16:02;;;;;;;11.77;1.67;;;;;;;;;;5048364;27;99849;-76
2024/01/15 02:18:29;;;;;;;2.95;1.40;;;;;;;;;;5051756;27;98787;-77
2024/01/15 02:20:55;;;;;;;3.53;1.58;;;;;;;;;;5049112;27;100138;-76
2024/01/15 02:23:22;;;;;;;6.30;1.23;;;;;;;;;;5047681;27;99986;-76
2024/01/15 02:25:48;;;;;;;4.32;1.48;;;;;;;;;;5049166;27;100956;-76
2024/01/15 02:28:15;;;;;;;5.40;1.90;;;;;;;;;;5048900;27;99409;-75
2024/01/15 02:30:42;;;;;;;9.60;1.23;;;;;;;;;;5054837;27;100070;-76
2024/01/15 02:33:10;;;;;;;6.18;1.48;;;;;;;;;;5048413;27;100113;-76
2024/01/15 02:35:37;;;;;;;14.23;2.22;;;;;;;;;;5048125;27;100168;-76
2024/01/15 02:38:04;;;;;;;3.47;1.90;;;;;;;;;;5051801;27;99983;-76
2024/01/15 02:40:31;;;;;;;2.28;1.75;;;;;;;;;;5057629;27;99691;-76
2024/01/15 02:42:57;;;;;;;3.53;1.45;;;;;;;;;;5047574;27;99986;-76
2024/01/15 02:45:24;;;;;;;8.82;1.35;;;;;;;;;;5055568;27;99968;-76
2024/01/15 02:47:50;;;;;;;4.35;1.42;;;;;;;;;;5047752;27;101068;-76
2024/01/15 02:50:17;;;;;;;1.05;0.88;;;;;;;;;;5047607;27;100177;-76
2024/01/15 02:52:43;;;;;;;1.02;0.82;;;;;;;;;;5048198;27;99082;-76
2024/01/15 02:55:09;;;;;;;0.60;0.60;;;;;;;;;;5049742;27;99404;-75
2024/01/15 02:57:36;;;;;;;5.82;0.80;;;;;;;;;;5068393;27;99865;-76
2024/01/15 03:00:03;;;;;;;4.68;1.42;;;;;;;;;;5070840;27;100310;-75
2024/01/15 03:02:31;;;;;;;4.43;1.23;;;;;;;;;;5055026;27;99036;-75
2024/01/15 03:04:57;;;;;;;7.53;1.48;;;;;;;;;;5047843;27;99869;-76
2024/01/15 03:07:24;;;;;;;4.28;1.58;;;;;;;;;;5048413;27;100204;-75
2024/01/15 03:09:50;;;;;;;4.85;1.63;;;;;;;;;;5047853;27;98626;-76
2024/01/15 03:12:18;;;;;;;4.25;1.25;;;;;;;;;;5046368;27;99896;-75
2024/01/15 03:14:44;;;;;;;2.25;0.90;;;;;;;;;;5054113;27;100555;-75
2024/01/15 03:17:12;;;;;;;1.45;1.20;;;;;;;;;;5065180;27;99882;-75
2024/01/15 03:19:38;;;;;;;12.80;2.10;;;;;;;;;;5047435;27;99977;-76
2024/01/15 03:22:07;;;;;;;1.50;0.88;;;;;;;;;;5051224;27;100190;-76
2024/01/15 03:24:34;;;;;;;2.22;1.27;;;;;;;;;;5047402;27;99851;-76
2024/01/15 03:27:01;;;;;;;1.73;0.70;;;;;;;;;;5047242;27;99754;-76
2024/01/15 03:29:27;;;;;;;4.60;0.77;;;;;;;;;;5064865;27;100028;-76
2024/01/15 03:31:53;;;;;;;18.45;1.65;;;;;;;;;;5067562;27;99183;-76
2024/01/15 03:34:20;;;;;;;3.50;1.48;;;;;;;;;;5055566;27;100251;-76
2024/01/15 03:36:47;;;;;;;2.63;1.27;;;;;;;;;;5047120;27;100060;-76
2024/01/15 03:39:13;;;;;;;4.70;1.30;;;;;;;;;;5046839;27;100740;-76
2024/01/15 03:41:40;;;;;;;7.13;1.90;;;;;;;;;;5047938;27;100549;-75
2024/01/15 03:44:06;;;;;;;2.47;1.40;;;;;;;;;;5050785;27;100102;-76
2024/01/15 03:46:32;;;;;;;4.90;1.08;;;;;;;;;;5046472;27;100340;-75
2024/01/15 03:48:59;;;;;;;4.55;1.05;;;;;;;;;;5053744;27;100011;-75
2024/01/15 03:51:25;;;;;;;5.53;1.73;;;;;;;;;;5048155;27;99045;-75
2024/01/15 03:53:52;;;;;;;3.92;1.25;;;;;;;;;;5047411;27;99537;-75
2024/01/15 03:56:18;;;;;;;1.05;1.05;;;;;;;;;;5046823;27;99009;-75
2024/01/15 03:58:45;;;;;;;4.25;1.50;;;;;;;;;;5057912;27;99893;-75
2024/01/15 04:01:11;;;;;;;3.08;1.20;;;;;;;;;;5066448;27;100878;-76
2024/01/15 04:03:38;;;;;;;8.90;1.55;;;;;;;;;;5067472;27;100078;-75
2024/01/15 04:06:05;;;;;;;2.17;1.10;;;;;;;;;;5058811;27;99889;-76
2024/01/15 04:08:31;;;;;;;3.05;1.02;;;;;;;;;;5045866;27;98970;-76
2024/01/15 04:10:58;;;;;;;1.17;1.15;;;;;;;;;;5047136;27;100119;-76
2024/01/15 04:13:24;;;;;;;1.73;1.35;;;;;;;;;;5047151;27;99926;-76
2024/01/15 04:15:51;;;;;;;3.90;1.23;;;;;;;;;;5046612;27;100176;-75
2024/01/15 04:18:18;;;;;;;5.85;1.25;;;;;;;;;;5047381;27;99960;-76
2024/01/15 04:20:44;;;;;;;6.53;1.55;;;;;;;;;;5047367;27;100356;-76
2024/01/15 04:23:11;;;;;;;1.65;1.15;;;;;;;;;;5046035;27;99284;-75
2024/01/15 04:25:37;;;;;;;6.78;1.38;;;;;;;;;;5046633;27;99778;-75
2024/01/15 04:28:04;;;;;;;7.95;1.30;;;;;;;;;;5049034;27;99272;-76
2024/01/15 04:30:31;;;;;;;5.63;1.38;;;;;;;;;;5047197;27;99856;-76
2024/01/15 04:32:57;;;;;;;2.17;1.30;;;;;;;;;;5046604;27;100420;-75
2024/01/15 04:35:24;;;;;;;7.82;1.25;;;;;;;;;;5046042;27;99780;-75
2024/01/15 04:37:50;;;;;;;8.57;1.20;;;;;;;;;;5048410;27;99991;-75
2024/01/15 04:40:16;;;;;;;4.63;1.92;;;;;;;;;;5053255;27;100461;-75
2024/01/15 04:42:45;;;;;;;9.60;1.42;;;;;;;;;;5067081;27;99950;-75
2024/01/15 04:45:12;;;;;;;5.53;2.13;;;;;;;;;;5067027;27;99291;-75
2024/01/15 04:47:38;;;;;;;5.28;1.08;;;;;;;;;;5070489;27;100094;-75
2024/01/15 04:50:05;;;;;;;9.05;1.67;;;;;;;;;;5064423;27;99775;-75
2024/01/15 04:52:32;;;;;;;7.80;1.60;;;;;;;;;;5050557;27;100305;-75
2024/01/15 04:54:58;;;;;;;9.13;1.88;;;;;;;;;;5065121;27;99092;-75
2024/01/15 04:57:25;;;;;;;5.85;1.85;;;;;;;;;;5066323;27;99947;-75
2024/01/15 04:59:51;;;;;;;6.75;1.33;;;;;;;;;;5067226;27;100144;-74
2024/01/15 05:02:18;;;;;;;6.72;1.45;;;;;;;;;;5066646;27;99854;-75
2024/01/15 05:04:44;;;;;;;0.70;0.70;;;;;;;;;;5066322;27;99735;-74
2024/01/15 05:07:10;;;;;;;9.57;1.17;;;;;;;;;;5066795;27;98563;-75
2024/01/15 05:09:37;;;;;;;11.32;1.85;;;;;;;;;;5063616;27;100009;-75
2024/01/15 05:12:03;;;;;;;4.13;1.92;;;;;;;;;;5045566;27;100360;-75
2024/01/15 05:14:30;;;;;;;6.00;1.45;;;;;;;;;;5049175;27;100722;-75
2024/01/15 05:16:56;;;;;;;3.15;1.27;;;;;;;;;;5066132;27;99624;-75
2024/01/15 05:19:23;;;;;;;4.70;1.40;;;;;;;;;;5066443;27;100795;-75
2024/01/15 05:21:49;;;;;;;4.18;1.40;;;;;;;;;;5066100;27;98838;-75
2024/01/15 05:24:16;;;;;;;4.30;1.17;;;;;;;;;;5063490;27;100405;-75
2024/01/15 05:26:42;;;;;;;2.38;1.40;;;;;;;;;;5059282;27;100267;-76
2024/01/15 05:29:09;;;;;;;17.33;1.63;;;;;;;;;;5066216;27;99954;-76
2024/01/15 05:31:36;;;;;;;2.17;0.90;;;;;;;;;;5069780;27;99861;-76
2024/01/15 05:34:02;;;;;;;3.03;0.95;;;;;;;;;;5066219;27;99983;-76
2024/01/15 05:36:29;;;;;;;6.03;1.10;;;;;;;;;;5065878;27;100328;-75
2024/01/15 05:38:56;;;;;;;1.23;1.00;;;;;;;;;;5064632;27;100979;-76
2024/01/15 05:41:22;;;;;;;1.30;1.20;;;;;;;;;;5062349;27;100172;-76
2024/01/15 05:43:49;;;;;;;4.68;1.02;;;;;;;;;;5046351;27;99868;-76
2024/01/15 05:46:15;;;;;;;2.08;1.00;;;;;;;;;;5045059;27;100658;-76
2024/01/15 05:48:42;;;;;;;6.32;1.35;;;;;;;;;;5046095;27;100602;-77
2024/01/15 05:51:09;;;;;;;3.10;1.60;;;;;;;;;;5045558;27;99238;-77
2024/01/15 05:53:38;;;;;;;5.95;1.70;;;;;;;;;;5048644;27;100414;-75
2024/01/15 05:56:04;;;;;;;2.75;1.17;;;;;;;;;;5046441;27;99858;-75
2024/01/15 05:58:31;;;;;;;4.05;1.52;;;;;;;;;;5053375;27;100199;-75
2024/01/15 06:00:57;;;;;;;10.25;1.85;;;;;;;;;;5044887;27;100253;-74
2024/01/15 06:03:24;;;;;;;12.48;2.50;;;;;;;;;;5045621;27;100147;-74
2024/01/15 06:05:51;;;;;;;6.20;1.48;;;;;;;;;;5044927;27;100177;-76
2024/01/15 06:08:18;;;;;;;4.25;1.75;;;;;;;;;;5043582;27;99890;-76
2024/01/15 06:10:45;;;;;;;3.17;1.45;;;;;;;;;;5045048;27;99966;-76
2024/01/15 06:13:11;;;;;;;2.95;1.63;;;;;;;;;;5052988;27;100197;-76
2024/01/15 06:15:38;;;;;;;2.58;2.08;;;;;;;;;;5048157;27;99703;-76
2024/01/15 06:18:05;;;;;;;5.10;1.85;;;;;;;;;;5044764;27;99417;-76
2024/01/15 06:20:31;;;;;;;4.95;1.20;;;;;;;;;;5045365;27;100062;-76
2024/01/15 06:22:58;;;;;;;2.35;1.75;;;;;;;;;;5045158;27;99198;-76
2024/01/15 06:25:24;;;;;;;8.25;2.20;;;;;;;;;;5047187;27;100081;-76
2024/01/15 06:27:51;;;;;;;14.52;1.77;;;;;;;;;;5047633;27;100098;-76
2024/01/15 06:30:18;;;;;;;6.47;1.67;;;;;;;;;;5052915;27;100693;-76
2024/01/15 06:32:44;;;;;;;3.75;1.70;;;;;;;;;;5045791;27;100633;-76
2024/01/15 06:35:11;;;;;;;9.98;1.45;;;;;;;;;;5044177;27;100142;-75
2024/01/15 06:37:38;;;;;;;8.23;1.80;;;;;;;;;;5067676;27;99216;-76
2024/01/15 06:40:05;;;;;;;5.85;1.67;;;;;;;;;;5049732;27;100618;-76
2024/01/15 06:42:32;;;;;;;3.13;1.25;;;;;;;;;;5044692;27;99132;-75
2024/01/15 06:44:58;;;;;;;6.13;1.50;;;;;;;;;;5052683;27;99572;-75
2024/01/15 06:47:25;;;;;;;5.05;2.08;;;;;;;;;;5049493;27;98940;-75
2024/01/15 06:49:52;;;;;;;3.95;1.52;;;;;;;;;;5048145;27;99916;-75
2024/01/15 06:52:18;;;;;;;1.50;1.40;;;;;;;;;;5048434;27;100974;-74
2024/01/15 06:54:45;;;;;;;5.25;1.85;;;;;;;;;;5047978;27;98951;-75
2024/01/15 06:57:11;;;;;;;1.67;1.58;;;;;;;;;;5050617;27;100299;-75
2024/01/15 06:59:38;;;;;;;5.07;1.40;;;;;;;;;;5048553;27;100053;-75
2024/01/15 07:02:05;;;;;;;7.32;1.85;;;;;;;;;;5051419;27;99590;-75
2024/01/15 07:04:31;;;;;;;6.65;2.35;;;;;;;;;;5047888;27;100561;-74
2024/01/15 07:06:58;;;;;;;3.80;1.80;;;;;;;;;;5048252;27;99036;-75
2024/01/15 07:09:24;;;;;;;2.45;1.88;;;;;;;;;;5049161;27;100044;-75
2024/01/15 07:11:51;;;;;;;7.07;2.10;;;;;;;;;;5048383;27;99581;-75
2024/01/15 07:14:17;;;;;;;2.95;1.83;;;;;;;;;;5048123;27;100129;-75
2024/01/15 07:16:44;;;;;;;2.53;1.90;;;;;;;;;;5052093;27;99333;-75
2024/01/15 07:19:15;;;;;;;5.80;1.58;;;;;;;;;;5052585;27;99461;-75
2024/01/15 07:21:42;;;;;;;10.55;1.80;;;;;;;;;;5048048;27;99861;-76
2024/01/15 07:24:10;;;;;;;6.22;2.38;;;;;;;;;;5047705;27;99994;-75
2024/01/15 07:26:36;;;;;;;7.28;1.83;;;;;;;;;;5048224;27;99325;-75
2024/01/15 07:29:03;;;;;;;7.72;2.20;;;;;;;;;;5049615;27;99909;-75
2024/01/15 07:31:29;;;;;;;3.60;1.80;;;;;;;;;;5049152;27;99420;-75
2024/01/15 07:33:56;;;;;;;2.35;1.65;;;;;;;;;;5064006;27;100227;-75
2024/01/15 07:36:24;;;;;;;5.97;1.60;;;;;;;;;;5059460;27;98482;-74
2024/01/15 07:38:51;;;;;;;3.72;1.60;;;;;;;;;;5055930;27;99049;-74
2024/01/15 07:41:17;;;;;;;3.38;1.63;;;;;;;;;;5058191;27;99881;-74
2024/01/15 07:43:43;;;;;;;5.22;1.92;;;;;;;;;;5054751;27;99106;-74
2024/01/15 07:46:10;;;;;;;3.78;2.25;;;;;;;;;;5047919;27;99925;-75
2024/01/15 07:48:36;;;;;;;3.22;1.63;;;;;;;;;;5065341;27;99963;-75
2024/01/15 07:51:04;;;;;;;2.53;1.80;;;;;;;;;;5067728;27;100624;-75
2024/01/15 07:53:30;;;;;;;1.83;1.70;;;;;;;;;;5050289;27;100063;-77
2024/01/15 07:55:56;;;;;;;1.95;1.55;;;;;;;;;;5056998;27;99850;-77
2024/01/15 07:58:23;;;;;;;5.57;2.20;;;;;;;;;;5047022;27;99470;-77
2024/01/15 08:00:51;;;;;;;7.60;1.92;;;;;;;;;;5060049;27;100187;-76
2024/01/15 08:03:19;;;;;;;2.88;1.88;;;;;;;;;;5053306;27;99335;-73
2024/01/15 08:05:46;;;;;;;6.85;1.80;;;;;;;;;;5052506;27;100616;-75
2024/01/15 08:08:13;;;;;;;2.35;2.15;;;;;;;;;;5053055;27;100688;-77
2024/01/15 08:10:39;;;;;;;5.05;2.10;;;;;;;;;;5046659;27;100318;-74
2024/01/15 08:13:08;;;;;;;2.55;1.80;;;;;;;;;;5049173;27;99954;-74
2024/01/15 08:15:34;;;;;;;4.70;1.80;;;;;;;;;;5049638;27;100357;-75
2024/01/15 08:18:01;;;;;;;2.08;1.73;;;;;;;;;;5055360;27;100167;-75
2024/01/15 08:20:27;;;;;;;2.55;2.22;;;;;;;;;;5049619;27;100239;-76
2024/01/15 08:22:54;;;;;;;5.78;2.42;;;;;;;;;;5048989;27;100102;-75
2024/01/15 08:25:20;;;;;;;2.20;2.05;;;;;;;;;;5055086;27;100252;-75
2024/01/15 08:27:47;;;;;;;15.95;3.97;;;;;;;;;;5050454;27;99307;-75
2024/01/15 08:30:13;;;;;;;4.60;2.38;;;;;;;;;;5047425;27;101051;-76
2024/01/15 08:32:42;;;;;;;10.25;3.60;;;;;;;;;;5050879;27;98943;-76
2024/01/15 08:35:09;;;;;;;3.13;2.20;;;;;;;;;;5044227;27;100190;-76
2024/01/15 08:37:37;;;;;;;8.23;2.47;;;;;;;;;;5060876;27;99459;-76
2024/01/15 08:40:03;;;;;;;4.22;2.20;;;;;;;;;;5055080;27;99935;-76
2024/01/15 08:42:30;;;;;;;1.77;1.67;;;;;;;;;;5054737;27;101731;-76
2024/01/15 08:44:56;;;;;;;8.13;2.67;;;;;;;;;;5055375;27;100338;-76
2024/01/15 08:47:23;;;;;;;3.75;2.03;;;;;;;;;;5055897;27;100229;-75
2024/01/15 08:49:49;;;;;;;3.47;2.28;;;;;;;;;;5050938;27;101129;-76
2024/01/15 08:52:16;;;;;;;2.05;1.92;;;;;;;;;;5049327;27;99844;-75
2024/01/15 08:54:42;;;;;;;3.58;2.20;;;;;;;;;;5046204;27;101214;-76
2024/01/15 08:57:09;;;;;;;6.22;1.92;;;;;;;;;;5048922;27;100402;-75
2024/01/15 08:59:35;;;;;;;2.88;2.40;;;;;;;;;;5048641;27;101571;-73
2024/01/15 09:02:02;;;;;;;3.33;1.70;;;;;;;;;;5047894;27;99864;-76
2024/01/15 09:04:28;;;;;;;2.17;1.50;;;;;;;;;;5049143;27;100432;-76
2024/01/15 09:06:55;;;;;;;7.43;1.88;;;;;;;;;;5053270;27;98890;-77
2024/01/15 09:09:22;;;;;;;8.30;1.65;;;;;;;;;;5049334;27;100492;-77
2024/01/15 09:11:48;;;;;;;3.25;1.75;;;;;;;;;;5052067;27;99991;-76
2024/01/15 09:14:15;;;;;;;8.13;2.72;;;;;;;;;;5049745;27;99867;-76
2024/01/15 09:16:44;;;;;;;5.38;2.42;;;;;;;;;;5047804;27;101280;-78
2024/01/15 09:19:11;;;;;;;3.47;2.30;;;;;;;;;;5048929;27;100338;-76
2024/01/15 09:21:38;;;;;;;2.20;1.52;;;;;;;;;;5053153;27;99729;-76
2024/01/15 09:24:05;;;;;;;6.75;1.80;;;;;;;;;;5050325;27;100100;-76
2024/01/15 09:26:31;;;;;;;3.85;0.90;;;;;;;;;;5050178;27;99862;-78
2024/01/15 09:28:58;;;;;;;4.90;1.70;;;;;;;;;;5049070;27;100314;-77
2024/01/15 09:31:24;;;;;;;1.65;1.30;;;;;;;;;;5046296;27;100850;-76
2024/01/15 09:33:56;;;;;;;1.27;1.17;;;;;;;;;;5053104;27;100083;-77
2024/01/15 09:36:22;;;;;;;2.75;1.77;;;;;;;;;;5056238;27;99878;-77
2024/01/15 09:38:49;;;;;;;2.85;1.80;;;;;;;;;;5065470;27;99045;-78
2024/01/15 09:41:15;;;;;;;11.40;1.52;;;;;;;;;;5049076;27;99934;-76
2024/01/15 09:43:42;;;;;;;8.60;2.45;;;;;;;;;;5058351;27;101018;-77
2024/01/15 09:46:09;;;;;;;3.03;1.27;;;;;;;;;;5061308;27;100064;-76
2024/01/15 09:48:36;;;;;;;4.15;1.27;;;;;;;;;;5051913;27;100484;-76
2024/01/15 09:51:04;;;;;;;1.98;1.42;;;;;;;;;;5049611;27;100009;-76
2024/01/15 09:53:30;;;;;;;8.00;1.80;;;;;;;;;;5053722;27;100011;-77
2024/01/15 09:55:58;;;;;;;5.68;1.67;;;;;;;;;;5046850;27;100237;-77
2024/01/15 09:58:24;;;;;;;6.60;1.40;;;;;;;;;;5047246;27;100277;-77
2024/01/15 10:00:51;;;;;;;1.48;1.23;;;;;;;;;;5056512;27;98416;-77
2024/01/15 10:03:18;;;;;;;9.15;2.67;;;;;;;;;;5065967;27;100885;-77
2024/01/15 10:05:44;;;;;;;3.97;1.35;;;;;;;;;;5064246;27;99753;-76
2024/01/15 10:08:11;;;;;;;6.43;2.10;;;;;;;;;;5056807;27;100945;-78
2024/01/15 10:10:37;;;;;;;6.13;2.25;;;;;;;;;;5051474;27;100074;-77
2024/01/15 10:13:04;;;;;;;5.18;1.95;;;;;;;;;;5048284;27;100124;-77
2024/01/15 10:15:36;;;;;;;5.68;1.27;;;;;;;;;;5048165;27;99370;-78
2024/01/15 10:18:03;;;;;;;9.80;2.28;;;;;;;;;;5050326;27;100446;-78
2024/01/15 10:20:32;;;;;;;3.58;1.08;;;;;;;;;;5047135;27;100214;-78
2024/01/15 10:22:58;;;;;;;5.35;1.30;;;;;;;;;;5048936;27;100623;-77
2024/01/15 10:25:25;;;;;;;3.67;1.13;;;;;;;;;;5050161;27;100051;-79
2024/01/15 10:28:02;;;;;;;11.43;1.90;;;;;;;;;;5066523;27;98980;-78
2024/01/15 10:30:29;;;;;;;3.13;1.50;;;;;;;;;;5051900;27;100720;-77
2024/01/15 10:32:59;;;;;;;5.03;1.77;;;;;;;;;;5065181;27;99784;-78
2024/01/15 10:35:29;;;;;;;4.97;1.48;;;;;;;;;;5062820;27;101320;-78
2024/01/15 10:37:55;;;;;;;7.18;1.77;;;;;;;;;;5051436;27;100300;-77
2024/01/15 10:40:22;;;;;;;8.23;1.80;;;;;;;;;;5053446;27;99800;-77
2024/01/15 10:42:50;;;;;;;5.47;1.88;;;;;;;;;;5054032;27;101548;-77
2024/01/15 10:45:17;;;;;;;2.92;1.30;;;;;;;;;;5048499;27;100216;-78
2024/01/15 10:47:44;;;;;;;8.20;1.73;;;;;;;;;;5049183;27;99949;-77
2024/01/15 10:50:10;;;;;;;5.97;1.67;;;;;;;;;;5049194;27;99871;-78
2024/01/15 10:52:37;;;;;;;3.67;1.15;;;;;;;;;;5052276;27;100652;-77
2024/01/15 10:55:05;;;;;;;6.25;1.92;;;;;;;;;;5053824;27;100089;-76
2024/01/15 10:57:38;;;;;;;6.45;1.80;;;;;;;;;;5047787;27;100449;-79
2024/01/15 11:00:05;;;;;;;3.15;1.63;;;;;;;;;;5046582;27;99836;-79
2024/01/15 11:02:34;;;;;;;4.28;1.50;;;;;;;;;;5050086;27;100113;-77
2024/01/15 11:05:00;;;;;;;7.40;1.90;;;;;;;;;;5052299;27;100059;-77
2024/01/15 11:07:29;;;;;;;3.60;1.80;;;;;;;;;;5053820;27;99020;-77
2024/01/15 11:09:57;;;;;;;4.40;1.20;;;;;;;;;;5053984;27;100919;-76
2024/01/15 11:12:24;;;;;;;5.65;2.05;;;;;;;;;;5055417;27;100194;-76
2024/01/15 11:14:51;;;;;;;9.95;2.25;;;;;;;;;;5052217;27;99962;-77
2024/01/15 11:17:18;;;;;;;6.88;1.50;;;;;;;;;;5053189;27;100298;-76
2024/01/15 11:19:46;;;;;;;10.27;1.73;;;;;;;;;;5053343;27;99197;-76
2024/01/15 11:22:31;;;;;;;14.65;2.08;;;;;;;;;;5054836;27;101355;-76
2024/01/15 11:25:02;;;;;;;4.97;1.90;;;;;;;;;;5051716;27;99782;-77
2024/01/15 11:27:47;;;;;;;3.38;1.60;;;;;;;;;;5052331;27;99874;-76
2024/01/15 11:30:14;;;;;;;8.32;1.98;;;;;;;;;;5049994;27;99968;-76
2024/01/15 11:32:42;;;;;;;4.97;1.13;;;;;;;;;;5058707;27;98954;-73
2024/01/15 11:35:09;;;;;;;2.50;1.55;;;;;;;;;;5066713;27;99928;-77
2024/01/15 11:37:57;;;;;;;1.55;1.00;;;;;;;;;;5050726;27;100288;-78
2024/01/15 11:40:39;;;;;;;1.48;1.00;;;;;;;;;;5062652;27;99130;-76
2024/01/15 11:43:06;;;;;;;0.80;0.80;;;;;;;;;;5050498;27;99542;-77
2024/01/15 11:45:36;;;;;;;1.23;1.23;;;;;;;;;;5048149;27;100609;-78
2024/01/15 11:48:09;;;;;;;3.97;1.63;;;;;;;;;;5055086;27;101928;-76
2024/01/15 11:50:39;;;;;;;1.98;1.00;;;;;;;;;;5052281;27;103600;-78
2024/01/15 11:53:10;;;;;;;6.72;1.95;;;;;;;;;;5052085;27;100154;-79
2024/01/15 11:55:41;;;;;;;1.23;0.80;;;;;;;;;;5051834;27;100355;-79
2024/01/15 11:58:09;;;;;;;8.38;1.50;;;;;;;;;;5049473;27;100707;-77
2024/01/15 12:00:40;;;;;;;2.10;0.80;;;;;;;;;;5056402;27;100105;-79
2024/01/15 12:03:08;;;;;;;3.45;0.90;;;;;;;;;;5051454;27;99765;-79
2024/01/15 12:05:36;;;;;;;1.70;0.95;;;;;;;;;;5047073;27;100260;-80
2024/01/15 12:08:03;;;;;;;0.82;0.80;;;;;;;;;;5045889;27;98966;-79
2024/01/15 12:10:30;;;;;;;3.22;1.00;;;;;;;;;;5051181;27;100568;-80
2024/01/15 12:13:00;;;;;;;2.05;0.98;;;;;;;;;;5047866;27;100189;-78
2024/01/15 12:15:28;;;;;;;8.60;2.15;;;;;;;;;;5049521;27;100533;-78
2024/01/15 12:18:04;;;;;;;1.00;0.73;;;;;;;;;;5047344;27;100107;-75
2024/01/15 12:20:31;;;;;;;5.60;1.40;;;;;;;;;;5060834;27;100288;-76
2024/01/15 12:22:58;;;;;;;7.88;1.35;;;;;;;;;;5050065;27;99796;-76
2024/01/15 12:25:31;;;;;;;2.05;1.30;;;;;;;;;;5051476;27;100274;-76
2024/01/15 12:27:58;;;;;;;5.60;1.00;;;;;;;;;;5050882;27;100343;-76
2024/01/15 12:30:25;;;;;;;6.05;1.70;;;;;;;;;;5051917;27;99747;-76
2024/01/15 12:32:52;;;;;;;1.27;0.80;;;;;;;;;;5048316;27;98984;-76
2024/01/15 12:35:18;;;;;;;3.70;1.30;;;;;;;;;;5053386;27;100116;-75
2024/01/15 12:37:48;;;;;;;6.28;1.10;;;;;;;;;;5050952;27;100808;-76
2024/01/15 12:40:18;;;;;;;2.60;0.80;;;;;;;;;;5049945;27;100121;-75
2024/01/15 12:42:45;;;;;;;4.95;1.88;;;;;;;;;;5049093;27;100256;-76
2024/01/15 12:45:12;;;;;;;4.57;1.50;;;;;;;;;;5048969;27;100567;-79
2024/01/15 12:47:39;;;;;;;2.75;1.00;;;;;;;;;;5057570;27;100077;-78
2024/01/15 12:50:09;;;;;;;10.68;2.38;;;;;;;;;;5052049;27;100544;-79
2024/01/15 12:52:45;;;;;;;13.65;1.42;;;;;;;;;;5052747;27;100111;-81
2024/01/15 12:55:12;;;;;;;9.40;1.13;;;;;;;;;;5046431;27;99891;-80
2024/01/15 12:57:38;;;;;;;8.40;1.50;;;;;;;;;;5049889;27;100948;-81
2024/01/15 13:00:07;;;;;;;5.20;1.42;;;;;;;;;;5047167;27;99943;-80
2024/01/15 13:02:34;;;;;;;5.25;1.42;;;;;;;;;;5044870;27;100920;-81
2024/01/15 13:05:00;;;;;;;2.45;1.40;;;;;;;;;;5048238;27;100228;-79
2024/01/15 13:07:27;;;;;;;1.08;0.95;;;;;;;;;;5051210;27;100430;-78
2024/01/15 13:09:54;;;;;;;9.32;1.83;;;;;;;;;;5044451;27;99855;-79
2024/01/15 13:12:21;;;;;;;6.85;1.05;;;;;;;;;;5045031;27;100032;-79
2024/01/15 13:14:48;;;;;;;3.60;1.48;;;;;;;;;;5047636;27;100093;-79
2024/01/15 13:17:15;;;;;;;1.20;0.90;;;;;;;;;;5046800;27;99791;-77
2024/01/15 13:19:41;;;;;;;5.35;1.17;;;;;;;;;;5052018;27;99709;-77
2024/01/15 13:22:09;;;;;;;3.40;1.45;;;;;;;;;;5044719;27;98658;-76
2024/01/15 13:24:36;;;;;;;5.22;0.90;;;;;;;;;;5050126;27;100344;-76
2024/01/15 13:27:04;;;;;;;7.97;1.40;;;;;;;;;;5046574;27;100990;-75
2024/01/15 13:29:31;;;;;;;7.65;1.73;;;;;;;;;;5052799;27;99972;-75
2024/01/15 13:31:58;;;;;;;6.35;1.45;;;;;;;;;;5048936;27;100408;-76
2024/01/15 13:34:24;;;;;;;1.65;1.20;;;;;;;;;;5054112;27;100084;-77
2024/01/15 13:36:53;;;;;;;4.50;1.23;;;;;;;;;;5052041;27;99868;-75
2024/01/15 13:39:20;;;;;;;2.75;1.33;;;;;;;;;;5049257;27;100345;-75
2024/01/15 13:41:46;;;;;;;19.98;3.08;;;;;;;;;;5046849;27;100130;-75
2024/01/15 13:44:13;;;;;;;1.38;1.25;;;;;;;;;;5047148;27;99423;-75
2024/01/15 13:46:39;;;;;;;4.07;2.35;;;;;;;;;;5051481;27;100019;-75
2024/01/15 13:49:06;;;;;;;5.03;1.95;;;;;;;;;;5049541;27;99901;-77
2024/01/15 13:51:32;;;;;;;9.05;2.72;;;;;;;;;;5046561;27;100850;-77
2024/01/15 13:53:59;;;;;;;7.00;1.40;;;;;;;;;;5047961;27;99855;-77
2024/01/15 13:56:30;;;;;;;5.53;1.83;;;;;;;;;;5043222;27;100263;-76
2024/01/15 13:58:58;;;;;;;5.55;1.60;;;;;;;;;;5047645;27;100175;-77
2024/01/15 14:01:25;;;;;;;8.30;1.75;;;;;;;;;;5045525;27;99789;-77
2024/01/15 14:03:51;;;;;;;10.90;2.03;;;;;;;;;;5049181;27;101950;-77
2024/01/15 14:06:18;;;;;;;9.40;1.83;;;;;;;;;;5045503;27;100083;-77
2024/01/15 14:08:44;;;;;;;3.08;1.33;;;;;;;;;;5055617;27;100139;-77
2024/01/15 14:11:11;;;;;;;9.93;1.90;;;;;;;;;;5064592;27;100415;-76
2024/01/15 14:13:37;;;;;;;3.53;1.48;;;;;;;;;;5064169;27;100114;-76
2024/01/15 14:16:05;;;;;;;5.43;1.38;;;;;;;;;;5018152;27;1141771;-75
2024/01/15 14:18:32;;;;;;;1.65;1.13;;;;;;;;;;5065884;27;99829;-75
2024/01/15 14:21:00;;;;;;;2.03;1.30;;;;;;;;;;5065777;27;100715;-76
2024/01/15 14:23:26;;;;;;;2.83;1.30;;;;;;;;;;5066010;27;100195;-76
2024/01/15 14:25:53;;;;;;;9.32;2.17;;;;;;;;;;5061323;27;99963;-76
2024/01/15 14:28:20;;;;;;;7.88;1.92;;;;;;;;;;5045281;27;99959;-75
2024/01/15 14:30:46;;;;;;;7.63;1.25;;;;;;;;;;5045596;27;100549;-75
2024/01/15 14:33:12;;;;;;;1.00;0.90;;;;;;;;;;5045491;27;100043;-73